Weimar, Texas
Current Conditions -  °F | °C
As of 10:15 AM on Thursday 27 Nov 2014 (Local Time) from K66R Reporting Station
Clear Clear  
Wind Chill: 57°   Ceiling: Unl
Heat Index: 57°   Visibility: 10mi
Dew Point: 34°   Wind: 8mph
Humidity: 42%   Direction: 60°ENE
Pressure: 30.51"   Gusts: NA
Location:  29.7°N, 96.78°W
Report Text: K66R 271615Z AUTO 06007KT 10SM CLR 14/01 A3051 RMK AO2 T01370009
Loading
Personal Weather Stations






























Interactive Weather Map New forecast layout! Learn more

10-Day Weather Forecast

Advertisements
Track Severe Weather on mobile